KEAT

Pangborn Memorial Airport

Wenatchee, Washington, USA
METAR KEAT 151855Z AUTO 11009KT 9SM FEW018 BKN024 OVC100 M01/M02 A3014 RMK AO2 UPB02E10SNE02 SLP219 P0000 T10061017
Observed Flight Rules
Dec-15 @ 18:55 UTC (41 minutes ago) Marginal Visual Flight Rules
Wind Visibility Clouds
110° at 9 knots 9 miles
  • Few at 1,800' AGL
  • Broken at 2,400' AGL
  • Overcast at 10,000' AGL
Temperatures Readings Precipitation
Current -1°C / 30°F
Dewpoint -2°C / 28°F
Humidity 93%
Altimeter 30.14" Hg
Pressure 1021.9 hPa
Elevation 377
Current Rain 0.005
METAR KEAT 151855Z AUTO 11009KT 9SM FEW018 BKN024 OVC100 M01/M02 A3014 RMK AO2 UPB02E10SNE02 SLP219 P0000 T10061017
Observed Flight Rules
Dec-15 @ 18:55 UTC
(41 minutes ago)
MVFR
Wind Visibility
110° at 9 knots 9 miles
Clouds
  • Few at 1,800' AGL
  • Broken at 2,400' AGL
  • Overcast at 10,000' AGL
Temperature Dewpoint
-1°C / 30°F -2°C / 28°F
Humidity Altimeter Pressure
93% 30.14" Hg 1021.9 hPa
Current Rain
0.005